Alanson, MI

7:40 PM EST on February 27, 2015 (GMT -0500)
Alanson Swing Bridge | Change Station
CLOSE
Current Station
Personal Weather Station
Location: Alanson, MI
Elevation: 597 ft
Nearby Weather Stations

Elev 597 ft 45.44 °N, 84.79 °W | Updated 4 seconds ago

Partly Cloudy
Partly Cloudy
10.8 °F
Feels Like 11 °F
N
2.2
Wind Variable Wind from SW
Gusts 2.9 mph

Today
High -- | Low -- °F
--% Chance of Precip.
Yesterday
High -- | Low -- °F
Precip. -- in
7:21 AM 6:23 PM
Waxing Gibbous, 73% visible
Pressure 30.48 in
Visibility 10.0 miles
Clouds Overcast 2900 ft
Windchill 11 °F
Dew Point 2 °F
Humidity 67%
Rainfall 0.00 in
Snow Depth Not available.
UV 0 out of 12
Pollen .30 out of 12
Air Quality Not available.
Flu Activity Not available.
METAR KMGN 280035Z AUTO 25004KT 10SM OVC029 M11/M15 A3048 RMK AO2 T11151155

More Conditions Fewer Conditions

Pressure 30.48 in
Visibility 10.0 miles
Clouds Overcast 2900 ft
Windchill 11 °F
Dew Point 2 °F
Humidity 67%
Rainfall 0.00 in
Snow Depth Not available.
UV 0 out of 12
Pollen .30 out of 12
Air Quality Not available.
Flu Activity Not available.
METAR KMGN 280035Z AUTO 25004KT 10SM OVC029 M11/M15 A3048 RMK AO2 T11151155

More Conditions Fewer Conditions

Nowcast | as of 6:00 PM EST on February 27, 2015

At 7 PM...mostly clear. Temperature 7 above. Southwest winds 6 mph. At 9 PM...mostly clear. Temperature 2 above. Southwest winds 5 mph. At 11 PM...mostly clear. Temperature 3 below. Southwest winds 6 mph. At 1 am...mostly clear. Temperature 3 below. Southwest winds 8 mph.

×

10-Day Weather Forecast

Almanac

Astronomy

Feb. 27, 2015 Rise Set
Actual Time
Civil Twilight
Nautical Twilight
Astronomical Twilight
Moon
Length of Visible Light
Length of Day
Tomorrow will be .
, % of the Moon is Illuminated

Today's Extremes

State Highs State Lows

Community

WunderPhotos

Upload Photos

1,800,904 photos uploaded!

WunderBlogs® & News

Nearby

Air Quality

  Air Quality AQ Index Pollutant
Not available.

Snow Depth

Station Depth Elevation

Earthquake Activity

City Distance Mag. Time & Date
Minimum magnitude displayed is 2.5.

Coastal Water Temperatures

Place Temperature

Nearby Weather Stations